sensor_id;sensor_type;location;lat;lon;timestamp;pressure;altitude;pressure_sealevel;temperature;humidity
27643;BME280;15053;48.618;10.024;2022-12-07T00:01:23;94168.78;;;2.71;94.12
27643;BME280;15053;48.618;10.024;2022-12-07T00:03:52;94166.22;;;2.71;94.18
27643;BME280;15053;48.618;10.024;2022-12-07T00:06:20;94165.28;;;2.77;94.21
27643;BME280;15053;48.618;10.024;2022-12-07T00:08:47;94162.44;;;2.78;94.27
27643;BME280;15053;48.618;10.024;2022-12-07T00:11:19;94164.78;;;2.80;94.08
27643;BME280;15053;48.618;10.024;2022-12-07T00:13:47;94166.88;;;2.83;93.99
27643;BME280;15053;48.618;10.024;2022-12-07T00:16:18;94159.66;;;2.80;94.07
27643;BME280;15053;48.618;10.024;2022-12-07T00:18:45;94172.31;;;2.86;93.59
27643;BME280;15053;48.618;10.024;2022-12-07T00:21:14;94170.75;;;2.85;93.74
27643;BME280;15053;48.618;10.024;2022-12-07T00:23:42;94165.84;;;2.84;93.57
27643;BME280;15053;48.618;10.024;2022-12-07T00:26:18;94169.47;;;2.83;93.31
27643;BME280;15053;48.618;10.024;2022-12-07T00:28:47;94171.47;;;2.81;93.35
27643;BME280;15053;48.618;10.024;2022-12-07T00:31:15;94163.75;;;2.81;93.47
27643;BME280;15053;48.618;10.024;2022-12-07T00:33:43;94161.75;;;2.83;93.50
27643;BME280;15053;48.618;10.024;2022-12-07T00:36:13;94166.31;;;2.81;93.12
27643;BME280;15053;48.618;10.024;2022-12-07T00:38:40;94165.78;;;2.79;93.49
27643;BME280;15053;48.618;10.024;2022-12-07T00:41:14;94159.34;;;2.76;93.49
27643;BME280;15053;48.618;10.024;2022-12-07T00:43:43;94151.84;;;2.75;93.41
27643;BME280;15053;48.618;10.024;2022-12-07T00:46:10;94157.00;;;2.75;93.41
27643;BME280;15053;48.618;10.024;2022-12-07T00:48:37;94151.84;;;2.75;93.56
27643;BME280;15053;48.618;10.024;2022-12-07T00:51:05;94159.34;;;2.76;93.11
27643;BME280;15053;48.618;10.024;2022-12-07T00:53:34;94158.09;;;2.79;93.30
27643;BME280;15053;48.618;10.024;2022-12-07T00:56:08;94164.47;;;2.76;94.15
27643;BME280;15053;48.618;10.024;2022-12-07T00:58:35;94157.78;;;2.75;94.15
27643;BME280;15053;48.618;10.024;2022-12-07T01:01:04;94159.56;;;2.75;93.52
27643;BME280;15053;48.618;10.024;2022-12-07T01:03:31;94153.91;;;2.73;94.04
27643;BME280;15053;48.618;10.024;2022-12-07T01:05:58;94162.88;;;2.70;94.01
27643;BME280;15053;48.618;10.024;2022-12-07T01:08:26;94164.13;;;2.68;94.14
27643;BME280;15053;48.618;10.024;2022-12-07T01:11:07;94158.47;;;2.66;94.42
27643;BME280;15053;48.618;10.024;2022-12-07T01:13:34;94155.31;;;2.64;94.70
27643;BME280;15053;48.618;10.024;2022-12-07T01:16:04;94150.19;;;2.64;94.86
27643;BME280;15053;48.618;10.024;2022-12-07T01:18:33;94149.72;;;2.67;95.24
27643;BME280;15053;48.618;10.024;2022-12-07T01:21:06;94150.50;;;2.67;95.20
27643;BME280;15053;48.618;10.024;2022-12-07T01:23:34;94152.06;;;2.68;95.63
27643;BME280;15053;48.618;10.024;2022-12-07T01:26:05;94152.38;;;2.72;95.71
27643;BME280;15053;48.618;10.024;2022-12-07T01:28:32;94147.69;;;2.69;95.36
27643;BME280;15053;48.618;10.024;2022-12-07T01:31:10;94156.94;;;2.70;95.49
27643;BME280;15053;48.618;10.024;2022-12-07T01:33:43;94153.38;;;2.71;95.76
27643;BME280;15053;48.618;10.024;2022-12-07T01:36:19;94158.72;;;2.69;95.48
27643;BME280;15053;48.618;10.024;2022-12-07T01:38:47;94159.00;;;2.68;95.90
27643;BME280;15053;48.618;10.024;2022-12-07T01:41:15;94160.00;;;2.67;96.00
27643;BME280;15053;48.618;10.024;2022-12-07T01:44:20;94150.50;;;2.67;95.91
27643;BME280;15053;48.618;10.024;2022-12-07T01:46:52;94157.69;;;2.65;96.10
27643;BME280;15053;48.618;10.024;2022-12-07T01:49:27;94157.16;;;2.63;96.45
27643;BME280;15053;48.618;10.024;2022-12-07T01:52:20;94161.97;;;2.60;95.78
27643;BME280;15053;48.618;10.024;2022-12-07T01:54:51;94155.53;;;2.57;95.40
27643;BME280;15053;48.618;10.024;2022-12-07T01:57:20;94153.44;;;2.54;95.81
27643;BME280;15053;48.618;10.024;2022-12-07T01:59:49;94156.78;;;2.55;96.09
27643;BME280;15053;48.618;10.024;2022-12-07T02:02:25;94156.00;;;2.54;96.37
27643;BME280;15053;48.618;10.024;2022-12-07T02:04:53;94155.22;;;2.54;96.02
27643;BME280;15053;48.618;10.024;2022-12-07T02:07:23;94148.53;;;2.53;96.43
27643;BME280;15053;48.618;10.024;2022-12-07T02:09:49;94155.75;;;2.56;96.53
27643;BME280;15053;48.618;10.024;2022-12-07T02:12:16;94154.75;;;2.57;96.27
27643;BME280;15053;48.618;10.024;2022-12-07T02:14:43;94157.56;;;2.55;96.50
27643;BME280;15053;48.618;10.024;2022-12-07T02:17:30;94153.19;;;2.56;96.23
27643;BME280;15053;48.618;10.024;2022-12-07T02:31:43;94158.09;;;2.57;96.29
27643;BME280;15053;48.618;10.024;2022-12-07T02:36:57;94159.94;;;2.62;95.96
27643;BME280;15053;48.618;10.024;2022-12-07T02:39:43;94157.38;;;2.62;96.33
27643;BME280;15053;48.618;10.024;2022-12-07T02:42:17;94160.47;;;2.64;95.82
27643;BME280;15053;48.618;10.024;2022-12-07T02:44:46;94155.31;;;2.64;96.25
27643;BME280;15053;48.618;10.024;2022-12-07T02:47:16;94152.84;;;2.69;96.63
27643;BME280;15053;48.618;10.024;2022-12-07T02:49:44;94148.44;;;2.69;95.55
27643;BME280;15053;48.618;10.024;2022-12-07T02:52:10;94144.66;;;2.72;95.95
27643;BME280;15053;48.618;10.024;2022-12-07T02:54:37;94143.63;;;2.73;95.72
27643;BME280;15053;48.618;10.024;2022-12-07T02:59:52;94137.78;;;2.77;95.61
27643;BME280;15053;48.618;10.024;2022-12-07T03:02:28;94142.13;;;2.77;95.74
27643;BME280;15053;48.618;10.024;2022-12-07T03:05:13;94141.09;;;2.78;95.52
27643;BME280;15053;48.618;10.024;2022-12-07T03:08:00;94143.13;;;2.76;95.20
27643;BME280;15053;48.618;10.024;2022-12-07T03:18:37;94144.03;;;2.65;94.89
27643;BME280;15053;48.618;10.024;2022-12-07T03:21:09;94139.44;;;2.67;94.89
27643;BME280;15053;48.618;10.024;2022-12-07T03:23:39;94147.13;;;2.67;94.76
27643;BME280;15053;48.618;10.024;2022-12-07T03:26:09;94150.97;;;2.64;94.03
27643;BME280;15053;48.618;10.024;2022-12-07T03:28:40;94145.56;;;2.61;94.59
27643;BME280;15053;48.618;10.024;2022-12-07T03:33:52;94151.75;;;2.65;94.35
27643;BME280;15053;48.618;10.024;2022-12-07T03:36:43;94159.72;;;2.63;94.90
27643;BME280;15053;48.618;10.024;2022-12-07T03:41:54;94145.56;;;2.61;95.13
27643;BME280;15053;48.618;10.024;2022-12-07T03:44:22;94143.50;;;2.63;94.91
27643;BME280;15053;48.618;10.024;2022-12-07T03:47:22;94146.09;;;2.63;94.96
27643;BME280;15053;48.618;10.024;2022-12-07T03:50:03;94141.94;;;2.62;94.47
27643;BME280;15053;48.618;10.024;2022-12-07T03:52:42;94136.81;;;2.62;94.28
27643;BME280;15053;48.618;10.024;2022-12-07T03:55:20;94141.94;;;2.62;94.10
27643;BME280;15053;48.618;10.024;2022-12-07T03:57:53;94147.34;;;2.60;94.15
27643;BME280;15053;48.618;10.024;2022-12-07T04:00:21;94146.03;;;2.58;94.19
27643;BME280;15053;48.618;10.024;2022-12-07T04:02:51;94141.88;;;2.57;93.90
27643;BME280;15053;48.618;10.024;2022-12-07T04:05:18;94149.38;;;2.58;93.93
27643;BME280;15053;48.618;10.024;2022-12-07T04:07:45;94148.81;;;2.56;92.79
27643;BME280;15053;48.618;10.024;2022-12-07T04:10:12;94144.47;;;2.57;93.36
27643;BME280;15053;48.618;10.024;2022-12-07T04:12:38;94144.47;;;2.57;93.13
27643;BME280;15053;48.618;10.024;2022-12-07T04:15:05;94141.38;;;2.55;92.45
27643;BME280;15053;48.618;10.024;2022-12-07T04:17:32;94134.66;;;2.54;92.83
27643;BME280;15053;48.618;10.024;2022-12-07T04:19:59;94137.47;;;2.52;92.88
27643;BME280;15053;48.618;10.024;2022-12-07T04:22:26;94136.69;;;2.52;93.07
27643;BME280;15053;48.618;10.024;2022-12-07T04:24:52;94138.19;;;2.48;92.44
27643;BME280;15053;48.618;10.024;2022-12-07T04:27:19;94134.06;;;2.47;92.62
27643;BME280;15053;48.618;10.024;2022-12-07T04:29:45;94139.22;;;2.47;92.18
27643;BME280;15053;48.618;10.024;2022-12-07T04:32:11;94136.88;;;2.45;92.68
27643;BME280;15053;48.618;10.024;2022-12-07T04:34:38;94132.97;;;2.43;92.15
27643;BME280;15053;48.618;10.024;2022-12-07T04:37:04;94132.97;;;2.43;92.40
27643;BME280;15053;48.618;10.024;2022-12-07T04:39:32;94145.63;;;2.44;92.16
27643;BME280;15053;48.618;10.024;2022-12-07T04:42:00;94135.25;;;2.39;92.58
27643;BME280;15053;48.618;10.024;2022-12-07T04:44:28;94142.97;;;2.39;92.04
27643;BME280;15053;48.618;10.024;2022-12-07T04:46:55;94141.63;;;2.36;92.34
27643;BME280;15053;48.618;10.024;2022-12-07T04:49:22;94132.41;;;2.35;92.19
27643;BME280;15053;48.618;10.024;2022-12-07T04:51:48;94132.41;;;2.35;92.51
27643;BME280;15053;48.618;10.024;2022-12-07T04:54:16;94136.75;;;2.35;92.20
27643;BME280;15053;48.618;10.024;2022-12-07T04:56:43;94130.78;;;2.29;92.08
27643;BME280;15053;48.618;10.024;2022-12-07T04:59:11;94140.53;;;2.27;92.54
27643;BME280;15053;48.618;10.024;2022-12-07T05:01:38;94137.38;;;2.25;92.00
27643;BME280;15053;48.618;10.024;2022-12-07T05:04:05;94134.06;;;2.25;91.93
27643;BME280;15053;48.618;10.024;2022-12-07T05:06:31;94131.72;;;2.23;92.19
27643;BME280;15053;48.618;10.024;2022-12-07T05:08:57;94130.72;;;2.24;92.21
27643;BME280;15053;48.618;10.024;2022-12-07T05:11:24;94132.19;;;2.20;92.22
27643;BME280;15053;48.618;10.024;2022-12-07T05:14:12;94124.75;;;2.19;92.14
27643;BME280;15053;48.618;10.024;2022-12-07T05:16:39;94126.53;;;2.18;92.01
27643;BME280;15053;48.618;10.024;2022-12-07T05:19:07;94134.69;;;2.15;91.94
27643;BME280;15053;48.618;10.024;2022-12-07T05:21:34;94130.56;;;2.14;92.23
27643;BME280;15053;48.618;10.024;2022-12-07T05:24:01;94129.03;;;2.13;92.72
27643;BME280;15053;48.618;10.024;2022-12-07T05:26:27;94123.59;;;2.10;92.34
27643;BME280;15053;48.618;10.024;2022-12-07T05:28:56;94126.16;;;2.10;92.39
27643;BME280;15053;48.618;10.024;2022-12-07T05:31:23;94108.91;;;2.05;92.19
27643;BME280;15053;48.618;10.024;2022-12-07T05:33:51;94118.06;;;2.01;92.24
27643;BME280;15053;48.618;10.024;2022-12-07T05:36:17;94119.59;;;1.97;92.08
27643;BME280;15053;48.618;10.024;2022-12-07T05:38:44;94122.63;;;1.94;92.37
27643;BME280;15053;48.618;10.024;2022-12-07T05:41:15;94112.56;;;1.93;92.72
27643;BME280;15053;48.618;10.024;2022-12-07T05:44:00;94116.69;;;1.94;92.03
27643;BME280;15053;48.618;10.024;2022-12-07T05:46:27;94124.16;;;1.95;92.22
27643;BME280;15053;48.618;10.024;2022-12-07T05:48:53;94122.38;;;1.96;92.00
27643;BME280;15053;48.618;10.024;2022-12-07T05:51:20;94115.13;;;1.93;92.54
27643;BME280;15053;48.618;10.024;2022-12-07T05:53:46;94121.59;;;1.95;92.46
27643;BME280;15053;48.618;10.024;2022-12-07T05:56:13;94130.53;;;1.93;92.42
27643;BME280;15053;48.618;10.024;2022-12-07T05:58:40;94119.88;;;1.84;93.03
27643;BME280;15053;48.618;10.024;2022-12-07T06:01:25;94118.66;;;1.87;92.35
27643;BME280;15053;48.618;10.024;2022-12-07T06:03:52;94118.34;;;1.83;93.12
27643;BME280;15053;48.618;10.024;2022-12-07T06:06:18;94125.13;;;1.89;92.43
27643;BME280;15053;48.618;10.024;2022-12-07T06:08:45;94115.91;;;1.93;92.91
27643;BME280;15053;48.618;10.024;2022-12-07T06:11:11;94118.50;;;1.93;92.98
27643;BME280;15053;48.618;10.024;2022-12-07T06:13:56;94121.06;;;1.93;92.48
27643;BME280;15053;48.618;10.024;2022-12-07T06:16:23;94116.94;;;1.92;92.97
27643;BME280;15053;48.618;10.024;2022-12-07T06:18:49;94116.94;;;1.92;92.92
27643;BME280;15053;48.618;10.024;2022-12-07T06:21:16;94115.91;;;1.93;92.82
27643;BME280;15053;48.618;10.024;2022-12-07T06:23:42;94125.19;;;1.94;93.09
27643;BME280;15053;48.618;10.024;2022-12-07T06:26:08;94129.84;;;1.97;92.85
27643;BME280;15053;48.618;10.024;2022-12-07T06:28:35;94129.59;;;1.99;92.84
27643;BME280;15053;48.618;10.024;2022-12-07T06:31:02;94131.69;;;2.02;93.03
27643;BME280;15053;48.618;10.024;2022-12-07T06:33:29;94130.44;;;2.04;92.72
27643;BME280;15053;48.618;10.024;2022-12-07T06:35:55;94131.22;;;2.05;92.64
27643;BME280;15053;48.618;10.024;2022-12-07T06:38:22;94121.75;;;2.05;92.40
27643;BME280;15053;48.618;10.024;2022-12-07T06:40:48;94109.69;;;2.06;92.36
27643;BME280;15053;48.618;10.024;2022-12-07T06:43:15;94105.31;;;2.06;92.22
27643;BME280;15053;48.618;10.024;2022-12-07T06:45:41;94108.97;;;2.10;92.56
27643;BME280;15053;48.618;10.024;2022-12-07T06:48:08;94107.41;;;2.09;92.04
27643;BME280;15053;48.618;10.024;2022-12-07T06:50:35;94115.09;;;2.09;91.79
27643;BME280;15053;48.618;10.024;2022-12-07T06:53:01;94112.25;;;2.06;91.42
27643;BME280;15053;48.618;10.024;2022-12-07T06:55:28;94120.50;;;2.08;91.04
27643;BME280;15053;48.618;10.024;2022-12-07T06:57:54;94119.72;;;2.07;90.66
27643;BME280;15053;48.618;10.024;2022-12-07T07:00:21;94125.63;;;2.08;90.05
27643;BME280;15053;48.618;10.024;2022-12-07T07:02:48;94115.28;;;2.03;89.48
27643;BME280;15053;48.618;10.024;2022-12-07T07:05:14;94120.13;;;1.99;89.32
27643;BME280;15053;48.618;10.024;2022-12-07T07:07:42;94131.38;;;1.98;89.10
27643;BME280;15053;48.618;10.024;2022-12-07T07:10:29;94133.94;;;1.98;88.99
27643;BME280;15053;48.618;10.024;2022-12-07T07:12:55;94147.34;;;2.00;88.57
27643;BME280;15053;48.618;10.024;2022-12-07T07:15:23;94139.09;;;1.98;88.82
27643;BME280;15053;48.618;10.024;2022-12-07T07:17:49;94139.72;;;2.05;88.74
27643;BME280;15053;48.618;10.024;2022-12-07T07:20:16;94141.03;;;2.08;88.52
27643;BME280;15053;48.618;10.024;2022-12-07T07:22:42;94139.47;;;2.07;88.02
27643;BME280;15053;48.618;10.024;2022-12-07T07:25:09;94141.81;;;2.08;87.61
27643;BME280;15053;48.618;10.024;2022-12-07T07:27:35;94142.56;;;2.09;87.49
27643;BME280;15053;48.618;10.024;2022-12-07T07:30:03;94141.34;;;2.11;87.11
27643;BME280;15053;48.618;10.024;2022-12-07T07:32:30;94148.78;;;2.13;86.47
27643;BME280;15053;48.618;10.024;2022-12-07T07:34:56;94141.88;;;2.13;86.33
27643;BME280;15053;48.618;10.024;2022-12-07T07:37:23;94146.47;;;2.11;86.22
27643;BME280;15053;48.618;10.024;2022-12-07T07:39:49;94148.00;;;2.12;85.99
27643;BME280;15053;48.618;10.024;2022-12-07T07:42:16;94146.22;;;2.13;85.61
27643;BME280;15053;48.618;10.024;2022-12-07T07:44:42;94142.41;;;2.15;86.00
27643;BME280;15053;48.618;10.024;2022-12-07T07:47:09;94148.06;;;2.17;85.48
27643;BME280;15053;48.618;10.024;2022-12-07T07:49:35;94145.28;;;2.19;85.47
27643;BME280;15053;48.618;10.024;2022-12-07T07:52:02;94153.78;;;2.19;85.45
27643;BME280;15053;48.618;10.024;2022-12-07T07:54:29;94146.59;;;2.21;85.69
27643;BME280;15053;48.618;10.024;2022-12-07T07:56:55;94153.84;;;2.24;85.83
27643;BME280;15053;48.618;10.024;2022-12-07T07:59:22;94153.38;;;2.27;85.87
27643;BME280;15053;48.618;10.024;2022-12-07T08:01:48;94157.00;;;2.31;86.07
27643;BME280;15053;48.618;10.024;2022-12-07T08:04:15;94161.66;;;2.34;85.66
27643;BME280;15053;48.618;10.024;2022-12-07T08:06:42;94161.19;;;2.37;86.07
27643;BME280;15053;48.618;10.024;2022-12-07T08:09:08;94163.50;;;2.39;85.42
27643;BME280;15053;48.618;10.024;2022-12-07T08:11:35;94171.78;;;2.41;85.72
27643;BME280;15053;48.618;10.024;2022-12-07T08:14:03;94167.44;;;2.42;85.91
27643;BME280;15053;48.618;10.024;2022-12-07T08:16:29;94168.97;;;2.43;85.45
27643;BME280;15053;48.618;10.024;2022-12-07T08:18:56;94173.31;;;2.42;85.65
27643;BME280;15053;48.618;10.024;2022-12-07T08:21:22;94174.09;;;2.43;85.57
27643;BME280;15053;48.618;10.024;2022-12-07T08:23:49;94175.13;;;2.42;85.15
27643;BME280;15053;48.618;10.024;2022-12-07T08:26:16;94183.38;;;2.44;85.33
27643;BME280;15053;48.618;10.024;2022-12-07T08:28:43;94176.91;;;2.41;84.76
27643;BME280;15053;48.618;10.024;2022-12-07T08:31:14;94179.78;;;2.45;85.27
27643;BME280;15053;48.618;10.024;2022-12-07T08:33:41;94179.78;;;2.45;85.64
27643;BME280;15053;48.618;10.024;2022-12-07T08:36:10;94183.38;;;2.44;85.14
27643;BME280;15053;48.618;10.024;2022-12-07T08:38:39;94181.28;;;2.41;85.02
27643;BME280;15053;48.618;10.024;2022-12-07T08:41:07;94188.25;;;2.45;85.54
27643;BME280;15053;48.618;10.024;2022-12-07T08:43:34;94186.25;;;2.47;85.37
27643;BME280;15053;48.618;10.024;2022-12-07T08:49:13;94186.47;;;2.46;85.36
27643;BME280;15053;48.618;10.024;2022-12-07T08:51:41;94187.00;;;2.48;85.26
27643;BME280;15053;48.618;10.024;2022-12-07T08:54:14;94173.16;;;2.49;85.41
27643;BME280;15053;48.618;10.024;2022-12-07T08:56:42;94182.91;;;2.47;85.70
27643;BME280;15053;48.618;10.024;2022-12-07T08:59:09;94177.44;;;2.43;85.86
27643;BME280;15053;48.618;10.024;2022-12-07T09:01:36;94183.13;;;2.45;85.82
27643;BME280;15053;48.618;10.024;2022-12-07T09:04:03;94183.91;;;2.46;85.69
27643;BME280;15053;48.618;10.024;2022-12-07T09:06:29;94184.44;;;2.48;86.06
27643;BME280;15053;48.618;10.024;2022-12-07T09:08:58;94183.13;;;2.45;85.23
27643;BME280;15053;48.618;10.024;2022-12-07T09:11:25;94172.84;;;2.45;85.38
27643;BME280;15053;48.618;10.024;2022-12-07T09:13:55;94177.50;;;2.48;85.26
27643;BME280;15053;48.618;10.024;2022-12-07T09:16:21;94179.06;;;2.49;85.34
27643;BME280;15053;48.618;10.024;2022-12-07T09:18:48;94179.38;;;2.53;84.72
27643;BME280;15053;48.618;10.024;2022-12-07T09:21:15;94174.47;;;2.51;85.06
27643;BME280;15053;48.618;10.024;2022-12-07T09:23:42;94176.56;;;2.54;85.15
27643;BME280;15053;48.618;10.024;2022-12-07T09:26:09;94175.56;;;2.55;84.45
27643;BME280;15053;48.618;10.024;2022-12-07T09:28:37;94171.91;;;2.51;83.89
27643;BME280;15053;48.618;10.024;2022-12-07T09:31:04;94171.41;;;2.54;84.16
27643;BME280;15053;48.618;10.024;2022-12-07T09:33:55;94174.56;;;2.61;84.38
27643;BME280;15053;48.618;10.024;2022-12-07T09:36:22;94171.78;;;2.63;84.42
27643;BME280;15053;48.618;10.024;2022-12-07T09:38:48;94175.13;;;2.63;84.23
27643;BME280;15053;48.618;10.024;2022-12-07T09:41:15;94169.75;;;2.65;84.74
27643;BME280;15053;48.618;10.024;2022-12-07T09:43:42;94177.75;;;2.68;84.27
27643;BME280;15053;48.618;10.024;2022-12-07T09:46:13;94170.34;;;2.72;84.04
27643;BME280;15053;48.618;10.024;2022-12-07T09:48:42;94166.75;;;2.73;83.61
27643;BME280;15053;48.618;10.024;2022-12-07T09:51:20;94160.13;;;2.77;83.71
27643;BME280;15053;48.618;10.024;2022-12-07T09:53:52;94155.56;;;2.84;83.24
27643;BME280;15053;48.618;10.024;2022-12-07T09:56:19;94150.25;;;2.90;83.59
27643;BME280;15053;48.618;10.024;2022-12-07T09:58:47;94152.59;;;2.97;83.62
27643;BME280;15053;48.618;10.024;2022-12-07T10:01:19;94155.00;;;3.04;83.46
27643;BME280;15053;48.618;10.024;2022-12-07T10:03:52;94142.66;;;3.06;83.27
27643;BME280;15053;48.618;10.024;2022-12-07T10:06:19;94140.66;;;3.08;83.14
27643;BME280;15053;48.618;10.024;2022-12-07T10:08:46;94129.56;;;3.07;83.26
27643;BME280;15053;48.618;10.024;2022-12-07T10:11:13;94147.41;;;3.19;83.04
27643;BME280;15053;48.618;10.024;2022-12-07T10:13:49;94142.09;;;3.25;83.03
27643;BME280;15053;48.618;10.024;2022-12-07T10:16:28;94135.66;;;3.28;82.13
27643;BME280;15053;48.618;10.024;2022-12-07T10:19:17;94138.00;;;3.29;82.01
27643;BME280;15053;48.618;10.024;2022-12-07T10:22:09;94140.84;;;3.33;81.90
27643;BME280;15053;48.618;10.024;2022-12-07T10:24:36;94142.69;;;3.32;80.96
27643;BME280;15053;48.618;10.024;2022-12-07T10:29:48;94139.56;;;3.30;80.80
27643;BME280;15053;48.618;10.024;2022-12-07T10:34:44;94135.00;;;3.37;80.28
27643;BME280;15053;48.618;10.024;2022-12-07T10:37:19;94135.53;;;3.39;79.83
27643;BME280;15053;48.618;10.024;2022-12-07T10:39:56;94133.19;;;3.38;79.81
27643;BME280;15053;48.618;10.024;2022-12-07T10:42:23;94127.81;;;3.39;79.90
27643;BME280;15053;48.618;10.024;2022-12-07T10:45:13;94134.78;;;3.44;80.06
27643;BME280;15053;48.618;10.024;2022-12-07T10:47:48;94131.19;;;3.45;79.18
27643;BME280;15053;48.618;10.024;2022-12-07T10:58:50;94107.28;;;3.49;78.47
27643;BME280;15053;48.618;10.024;2022-12-07T11:01:27;94099.81;;;3.48;79.17
27643;BME280;15053;48.618;10.024;2022-12-07T11:07:14;94105.53;;;3.55;78.94
27643;BME280;15053;48.618;10.024;2022-12-07T11:10:13;94099.09;;;3.57;79.10
27643;BME280;15053;48.618;10.024;2022-12-07T11:13:10;94096.56;;;3.63;78.93
27643;BME280;15053;48.618;10.024;2022-12-07T11:16:03;94096.06;;;3.66;78.24
27643;BME280;15053;48.618;10.024;2022-12-07T11:18:43;94087.31;;;3.67;78.63
27643;BME280;15053;48.618;10.024;2022-12-07T11:21:36;94090.44;;;3.74;78.40
27643;BME280;15053;48.618;10.024;2022-12-07T11:24:13;94079.66;;;3.77;78.30
27643;BME280;15053;48.618;10.024;2022-12-07T11:27:01;94079.16;;;3.80;78.20
27643;BME280;15053;48.618;10.024;2022-12-07T11:29:51;94071.44;;;3.80;77.76
27643;BME280;15053;48.618;10.024;2022-12-07T11:32:45;94077.88;;;3.82;77.50
27643;BME280;15053;48.618;10.024;2022-12-07T11:35:34;94074.56;;;3.82;77.29
27643;BME280;15053;48.618;10.024;2022-12-07T11:38:16;94070.66;;;3.79;77.30
27643;BME280;15053;48.618;10.024;2022-12-07T11:40:48;94078.16;;;3.81;76.22
27643;BME280;15053;48.618;10.024;2022-12-07T11:43:24;94077.13;;;3.82;76.39
27643;BME280;15053;48.618;10.024;2022-12-07T11:46:08;94075.31;;;3.82;76.89
27643;BME280;15053;48.618;10.024;2022-12-07T11:48:38;94072.75;;;3.82;77.05
27643;BME280;15053;48.618;10.024;2022-12-07T11:51:11;94066.31;;;3.85;77.31
27643;BME280;15053;48.618;10.024;2022-12-07T11:53:44;94072.00;;;3.87;76.80
27643;BME280;15053;48.618;10.024;2022-12-07T11:56:16;94073.81;;;3.91;76.81
27643;BME280;15053;48.618;10.024;2022-12-07T12:04:06;94056.09;;;3.95;76.87
27643;BME280;15053;48.618;10.024;2022-12-07T12:06:41;94047.56;;;3.94;77.74
27643;BME280;15053;48.618;10.024;2022-12-07T12:09:17;94048.88;;;3.97;77.32
27643;BME280;15053;48.618;10.024;2022-12-07T12:12:27;94056.59;;;3.97;78.15
27643;BME280;15053;48.618;10.024;2022-12-07T12:15:38;94050.44;;;3.98;78.11
27643;BME280;15053;48.618;10.024;2022-12-07T12:18:28;94041.66;;;3.99;77.56
27643;BME280;15053;48.618;10.024;2022-12-07T12:21:09;94037.56;;;3.98;78.54
27643;BME280;15053;48.618;10.024;2022-12-07T12:23:41;94043.75;;;4.02;78.42
27643;BME280;15053;48.618;10.024;2022-12-07T12:26:17;94030.88;;;4.07;77.34
27643;BME280;15053;48.618;10.024;2022-12-07T12:28:56;94036.03;;;4.07;77.43
27643;BME280;15053;48.618;10.024;2022-12-07T12:33:59;94035.50;;;4.00;76.58
27643;BME280;15053;48.618;10.024;2022-12-07T12:46:57;94039.88;;;3.99;77.94
27643;BME280;15053;48.618;10.024;2022-12-07T12:51:58;94032.66;;;4.01;78.41
27643;BME280;15053;48.618;10.024;2022-12-07T12:54:28;94029.31;;;4.01;78.11
27643;BME280;15053;48.618;10.024;2022-12-07T12:57:18;94030.06;;;4.01;79.21
27643;BME280;15053;48.618;10.024;2022-12-07T13:02:28;94023.91;;;4.02;79.24
27643;BME280;15053;48.618;10.024;2022-12-07T13:04:59;94022.63;;;4.00;78.51
27643;BME280;15053;48.618;10.024;2022-12-07T13:15:39;94009.66;;;3.85;78.80
27643;BME280;15053;48.618;10.024;2022-12-07T13:23:33;93999.31;;;3.80;79.58
27643;BME280;15053;48.618;10.024;2022-12-07T13:28:37;94009.91;;;3.78;79.69
27643;BME280;15053;48.618;10.024;2022-12-07T13:33:39;94000.31;;;3.74;80.39
27643;BME280;15053;48.618;10.024;2022-12-07T13:36:21;93997.50;;;3.70;80.26
27643;BME280;15053;48.618;10.024;2022-12-07T13:38:59;94003.38;;;3.66;80.89
27643;BME280;15053;48.618;10.024;2022-12-07T13:41:27;94000.28;;;3.64;80.48
27643;BME280;15053;48.618;10.024;2022-12-07T13:44:01;94000.78;;;3.61;81.25
27643;BME280;15053;48.618;10.024;2022-12-07T13:46:49;94005.94;;;3.61;81.22
27643;BME280;15053;48.618;10.024;2022-12-07T13:49:22;94005.94;;;3.61;81.33
27643;BME280;15053;48.618;10.024;2022-12-07T13:51:49;93991.47;;;3.54;81.12
27643;BME280;15053;48.618;10.024;2022-12-07T13:54:16;94002.31;;;3.56;81.86
27643;BME280;15053;48.618;10.024;2022-12-07T13:56:42;93998.97;;;3.56;81.77
27643;BME280;15053;48.618;10.024;2022-12-07T13:59:16;94002.06;;;3.58;82.00
27643;BME280;15053;48.618;10.024;2022-12-07T14:01:46;93996.91;;;3.58;82.01
27643;BME280;15053;48.618;10.024;2022-12-07T14:04:34;94001.28;;;3.57;82.66
27643;BME280;15053;48.618;10.024;2022-12-07T14:07:19;93999.75;;;3.56;82.36
27643;BME280;15053;48.618;10.024;2022-12-07T14:09:59;94000.75;;;3.55;82.19
27643;BME280;15053;48.618;10.024;2022-12-07T14:12:28;94000.75;;;3.55;82.33
27643;BME280;15053;48.618;10.024;2022-12-07T14:14:56;93987.34;;;3.48;82.98
27643;BME280;15053;48.618;10.024;2022-12-07T14:17:24;94003.59;;;3.54;82.57
27643;BME280;15053;48.618;10.024;2022-12-07T14:19:53;94006.91;;;3.54;82.94
27643;BME280;15053;48.618;10.024;2022-12-07T14:24:51;94001.53;;;3.56;83.50
27643;BME280;15053;48.618;10.024;2022-12-07T14:27:22;93993.53;;;3.52;83.03
27643;BME280;15053;48.618;10.024;2022-12-07T14:29:49;93998.69;;;3.52;83.61
27643;BME280;15053;48.618;10.024;2022-12-07T14:35:07;93994.03;;;3.49;83.92
27643;BME280;15053;48.618;10.024;2022-12-07T14:37:34;93989.38;;;3.46;83.64
27643;BME280;15053;48.618;10.024;2022-12-07T14:40:01;93995.31;;;3.47;83.28
27643;BME280;15053;48.618;10.024;2022-12-07T14:42:30;93991.91;;;3.41;84.35
27643;BME280;15053;48.618;10.024;2022-12-07T14:44:57;94002.72;;;3.43;84.03
27643;BME280;15053;48.618;10.024;2022-12-07T14:47:26;94004.56;;;3.43;83.89
27643;BME280;15053;48.618;10.024;2022-12-07T14:50:14;94001.69;;;3.39;83.83
27643;BME280;15053;48.618;10.024;2022-12-07T14:52:43;93995.47;;;3.35;84.21
27643;BME280;15053;48.618;10.024;2022-12-07T14:55:31;93998.06;;;3.35;84.85
27643;BME280;15053;48.618;10.024;2022-12-07T14:57:59;93990.84;;;3.32;84.33
27643;BME280;15053;48.618;10.024;2022-12-07T15:00:27;93993.94;;;3.34;84.06